Time;durP1;ratioP1;P1;durP2;ratioP2;P2;SDS_P1;SDS_P2;PMS_P1;PMS_P2;Temp;Humidity;BMP_temperature;BMP_pressure;BME280_temperature;BME280_humidity;BME280_pressure;Samples;Min_cycle;Max_cycle;Signal;HPM_P1;HPM_P2
2023/08/21 00:00:12;;;;;;;2.08;1.20;;;;;;;;;;5054946;28;20368;-78
2023/08/21 00:02:40;;;;;;;2.72;1.23;;;;;;;;;;5054705;28;20057;-78
2023/08/21 00:05:06;;;;;;;2.78;1.00;;;;;;;;;;5053350;28;20048;-78
2023/08/21 00:07:31;;;;;;;2.92;1.08;;;;;;;;;;5036564;28;20415;-77
2023/08/21 00:09:56;;;;;;;0.90;0.90;;;;;;;;;;5054526;28;20028;-78
2023/08/21 00:12:22;;;;;;;1.27;1.02;;;;;;;;;;5053337;28;20021;-78
2023/08/21 00:14:47;;;;;;;1.83;1.00;;;;;;;;;;5054911;28;20416;-78
2023/08/21 00:17:13;;;;;;;4.43;1.65;;;;;;;;;;5054122;28;20033;-77
2023/08/21 00:19:38;;;;;;;2.25;1.30;;;;;;;;;;5052964;28;20063;-78
2023/08/21 00:22:03;;;;;;;2.22;0.82;;;;;;;;;;5054349;28;20388;-78
2023/08/21 00:24:29;;;;;;;1.77;1.13;;;;;;;;;;5052816;28;20029;-78
2023/08/21 00:26:54;;;;;;;1.77;1.00;;;;;;;;;;5054054;28;20067;-78
2023/08/21 00:29:20;;;;;;;1.85;1.05;;;;;;;;;;5053872;28;20036;-78
2023/08/21 00:31:45;;;;;;;0.95;0.88;;;;;;;;;;5052617;28;20029;-78
2023/08/21 00:34:11;;;;;;;2.28;1.10;;;;;;;;;;5053132;28;20567;-78
2023/08/21 00:36:36;;;;;;;1.27;1.10;;;;;;;;;;5054925;28;20040;-78
2023/08/21 00:39:02;;;;;;;2.33;1.05;;;;;;;;;;5052332;28;20078;-78
2023/08/21 00:41:27;;;;;;;0.95;0.82;;;;;;;;;;5052284;28;20400;-78
2023/08/21 00:43:52;;;;;;;1.73;1.02;;;;;;;;;;5053891;28;20418;-78
2023/08/21 00:46:18;;;;;;;2.08;1.10;;;;;;;;;;5053525;28;20037;-77
2023/08/21 00:48:44;;;;;;;1.83;1.10;;;;;;;;;;5053674;28;20108;-78
2023/08/21 00:51:10;;;;;;;1.27;1.00;;;;;;;;;;5052141;28;20044;-77
2023/08/21 00:53:36;;;;;;;1.85;1.00;;;;;;;;;;5053648;28;20029;-77
2023/08/21 00:56:02;;;;;;;2.05;1.30;;;;;;;;;;5052131;28;20040;-78
2023/08/21 00:58:27;;;;;;;1.90;1.13;;;;;;;;;;5052548;28;20091;-77
2023/08/21 01:00:53;;;;;;;1.60;1.10;;;;;;;;;;5051086;28;20476;-78
2023/08/21 01:03:19;;;;;;;2.75;1.20;;;;;;;;;;5053412;28;20025;-78
2023/08/21 01:05:44;;;;;;;2.38;1.25;;;;;;;;;;5052543;28;20455;-78
2023/08/21 01:08:35;;;;;;;1.60;1.02;;;;;;;;;;5052199;28;20396;-77
2023/08/21 01:11:21;;;;;;;1.85;0.95;;;;;;;;;;5035591;28;20440;-78
2023/08/21 01:14:07;;;;;;;1.10;1.00;;;;;;;;;;5051528;28;20045;-78
2023/08/21 01:16:33;;;;;;;1.33;0.90;;;;;;;;;;5052084;28;20087;-77
2023/08/21 01:18:59;;;;;;;1.15;0.80;;;;;;;;;;5051892;28;20032;-78
2023/08/21 01:21:25;;;;;;;1.40;0.90;;;;;;;;;;5051777;28;20435;-78
2023/08/21 01:23:50;;;;;;;1.05;0.90;;;;;;;;;;5035226;28;20024;-77
2023/08/21 01:26:16;;;;;;;2.50;1.00;;;;;;;;;;5053327;28;20425;-77
2023/08/21 01:28:41;;;;;;;3.97;1.00;;;;;;;;;;5051838;28;20036;-77
2023/08/21 01:31:26;;;;;;;1.58;1.10;;;;;;;;;;5035262;28;20020;-78
2023/08/21 01:33:57;;;;;;;1.33;1.10;;;;;;;;;;5035077;28;20021;-77
2023/08/21 01:36:23;;;;;;;1.65;1.10;;;;;;;;;;5035805;28;20064;-77
2023/08/21 01:38:48;;;;;;;1.77;1.00;;;;;;;;;;5052013;28;20582;-77
2023/08/21 01:41:13;;;;;;;1.92;1.00;;;;;;;;;;5051977;28;20029;-77
2023/08/21 01:43:39;;;;;;;2.00;0.95;;;;;;;;;;5051547;28;20377;-78
2023/08/21 01:46:06;;;;;;;1.73;1.02;;;;;;;;;;5052937;28;20044;-77
2023/08/21 01:48:31;;;;;;;1.75;1.23;;;;;;;;;;5053381;28;20029;-77
2023/08/21 01:50:57;;;;;;;1.42;1.00;;;;;;;;;;5052367;28;20108;-77
2023/08/21 01:53:22;;;;;;;2.03;1.13;;;;;;;;;;5051577;28;20033;-77
2023/08/21 01:55:47;;;;;;;1.75;1.00;;;;;;;;;;5052759;28;20052;-76
2023/08/21 01:58:13;;;;;;;1.70;1.20;;;;;;;;;;5052961;28;20032;-76
2023/08/21 02:00:38;;;;;;;1.52;0.85;;;;;;;;;;5052930;28;20371;-77
2023/08/21 02:03:03;;;;;;;1.23;1.02;;;;;;;;;;5051498;28;20044;-77
2023/08/21 02:05:29;;;;;;;1.85;0.93;;;;;;;;;;5051786;28;20415;-76
2023/08/21 02:07:54;;;;;;;1.27;1.00;;;;;;;;;;5053251;28;20060;-76
2023/08/21 02:10:20;;;;;;;2.08;1.20;;;;;;;;;;5051378;28;20472;-76
2023/08/21 02:12:45;;;;;;;1.60;1.00;;;;;;;;;;5055056;28;20060;-76
2023/08/21 02:15:10;;;;;;;1.13;0.95;;;;;;;;;;5055230;28;20462;-76
2023/08/21 02:17:36;;;;;;;2.50;1.00;;;;;;;;;;5055169;28;20047;-77
2023/08/21 02:20:01;;;;;;;1.60;1.05;;;;;;;;;;5054945;28;20351;-77
2023/08/21 02:22:27;;;;;;;1.13;1.00;;;;;;;;;;5055426;28;20075;-76
2023/08/21 02:24:53;;;;;;;0.90;0.90;;;;;;;;;;5055328;28;20037;-76
2023/08/21 02:27:18;;;;;;;1.67;1.10;;;;;;;;;;5054946;28;20503;-76
2023/08/21 02:29:43;;;;;;;1.15;0.85;;;;;;;;;;5055176;28;20033;-77
2023/08/21 02:32:09;;;;;;;1.30;1.00;;;;;;;;;;5054971;28;20365;-76
2023/08/21 02:34:34;;;;;;;2.00;1.10;;;;;;;;;;5054826;28;20072;-76
2023/08/21 02:37:00;;;;;;;2.60;1.10;;;;;;;;;;5056006;28;20037;-76
2023/08/21 02:39:25;;;;;;;1.75;1.05;;;;;;;;;;5054892;28;20051;-76
2023/08/21 02:41:50;;;;;;;1.38;1.10;;;;;;;;;;5055795;28;20056;-76
2023/08/21 02:44:16;;;;;;;2.00;1.00;;;;;;;;;;5054614;28;20104;-76
2023/08/21 02:46:41;;;;;;;2.53;1.10;;;;;;;;;;5054579;28;20033;-76
2023/08/21 02:49:06;;;;;;;2.20;1.10;;;;;;;;;;5054869;28;20036;-76
2023/08/21 02:51:32;;;;;;;2.40;1.23;;;;;;;;;;5054681;28;20499;-76
2023/08/21 02:53:57;;;;;;;2.90;1.17;;;;;;;;;;5055736;28;20072;-76
2023/08/21 02:56:22;;;;;;;0.90;0.90;;;;;;;;;;5054813;28;20037;-76
2023/08/21 02:58:48;;;;;;;2.58;0.90;;;;;;;;;;5054341;28;20028;-77
2023/08/21 03:01:13;;;;;;;3.30;1.00;;;;;;;;;;5055778;28;20029;-77
2023/08/21 03:03:39;;;;;;;1.67;1.20;;;;;;;;;;5055862;28;20399;-76
2023/08/21 03:06:04;;;;;;;3.10;1.45;;;;;;;;;;5056456;28;20039;-77
2023/08/21 03:08:29;;;;;;;1.75;0.98;;;;;;;;;;5054319;28;20577;-77
2023/08/21 03:10:55;;;;;;;0.98;0.85;;;;;;;;;;5054347;28;20048;-77
2023/08/21 03:13:20;;;;;;;1.48;1.00;;;;;;;;;;5055930;28;20357;-77
2023/08/21 03:15:46;;;;;;;1.13;1.02;;;;;;;;;;5054259;28;20040;-77
2023/08/21 03:18:11;;;;;;;2.22;0.90;;;;;;;;;;5054149;28;20102;-77
2023/08/21 03:20:36;;;;;;;0.70;0.70;;;;;;;;;;5055442;28;20456;-76
2023/08/21 03:23:02;;;;;;;2.25;1.00;;;;;;;;;;5054130;28;20060;-76
2023/08/21 03:25:28;;;;;;;4.40;1.02;;;;;;;;;;5055169;28;20419;-76
2023/08/21 03:27:53;;;;;;;1.70;1.02;;;;;;;;;;5055287;28;20392;-76
2023/08/21 03:30:18;;;;;;;1.50;1.00;;;;;;;;;;5054997;28;20079;-77
2023/08/21 03:32:44;;;;;;;1.42;0.90;;;;;;;;;;5053893;28;20029;-77
2023/08/21 03:35:09;;;;;;;2.08;1.20;;;;;;;;;;5055366;28;20052;-76
2023/08/21 03:37:35;;;;;;;2.47;1.30;;;;;;;;;;5054848;28;20107;-76
2023/08/21 03:40:03;;;;;;;1.60;1.02;;;;;;;;;;5053838;28;20025;-76
2023/08/21 03:42:29;;;;;;;1.60;1.00;;;;;;;;;;5055020;28;20056;-76
2023/08/21 03:44:54;;;;;;;1.48;1.10;;;;;;;;;;5053579;28;20036;-77
2023/08/21 03:47:19;;;;;;;2.20;1.00;;;;;;;;;;5053778;28;20418;-77
2023/08/21 03:49:48;;;;;;;2.65;0.98;;;;;;;;;;5054507;28;20040;-76
2023/08/21 03:52:13;;;;;;;2.40;1.23;;;;;;;;;;5054337;28;20035;-76
2023/08/21 03:54:39;;;;;;;1.98;1.08;;;;;;;;;;5054923;28;20029;-76
2023/08/21 03:57:04;;;;;;;3.03;1.30;;;;;;;;;;5053246;28;20021;-77
2023/08/21 03:59:30;;;;;;;2.30;0.93;;;;;;;;;;5053208;28;20103;-76
2023/08/21 04:01:55;;;;;;;1.63;0.90;;;;;;;;;;5054084;28;20055;-76
2023/08/21 04:04:21;;;;;;;1.50;0.90;;;;;;;;;;5052591;28;20430;-76
2023/08/21 04:06:46;;;;;;;3.35;1.30;;;;;;;;;;5036878;28;20104;-77
2023/08/21 04:09:11;;;;;;;1.58;1.00;;;;;;;;;;5052980;28;20391;-76
2023/08/21 04:11:37;;;;;;;1.30;0.90;;;;;;;;;;5053831;28;20024;-77
2023/08/21 04:14:03;;;;;;;1.33;1.00;;;;;;;;;;5052724;28;20099;-77
2023/08/21 04:16:28;;;;;;;1.50;1.02;;;;;;;;;;5035837;28;20479;-77
2023/08/21 04:18:54;;;;;;;2.20;1.00;;;;;;;;;;5054698;28;20025;-77
2023/08/21 04:21:19;;;;;;;1.70;1.10;;;;;;;;;;5036265;28;20391;-77
2023/08/21 04:23:47;;;;;;;1.75;1.20;;;;;;;;;;5054283;28;20119;-76
2023/08/21 04:26:13;;;;;;;4.60;1.23;;;;;;;;;;5053261;28;20479;-76
2023/08/21 04:28:38;;;;;;;6.10;1.67;;;;;;;;;;5052961;28;20051;-74
2023/08/21 04:31:07;;;;;;;2.45;1.30;;;;;;;;;;5053965;28;20021;-77
2023/08/21 04:33:33;;;;;;;2.92;1.10;;;;;;;;;;5052957;28;20028;-77
2023/08/21 04:35:59;;;;;;;3.00;1.20;;;;;;;;;;5053299;28;20033;-77
2023/08/21 04:38:25;;;;;;;1.35;1.20;;;;;;;;;;5052629;28;20155;-77
2023/08/21 04:40:50;;;;;;;2.20;1.38;;;;;;;;;;5053587;28;20037;-76
2023/08/21 04:43:16;;;;;;;7.40;2.15;;;;;;;;;;5052466;28;20057;-76
2023/08/21 04:45:55;;;;;;;3.00;1.20;;;;;;;;;;5053781;28;20029;-76
2023/08/21 04:48:21;;;;;;;3.42;1.42;;;;;;;;;;5054314;28;20028;-76
2023/08/21 04:50:46;;;;;;;1.92;1.10;;;;;;;;;;5021405;28;20096;-76
2023/08/21 04:53:12;;;;;;;3.95;1.30;;;;;;;;;;5053539;28;20033;-77
2023/08/21 04:55:40;;;;;;;3.72;1.20;;;;;;;;;;5053883;28;20049;-77
2023/08/21 04:58:06;;;;;;;5.13;1.15;;;;;;;;;;5054934;28;20550;-77
2023/08/21 05:00:31;;;;;;;2.08;1.30;;;;;;;;;;5036256;28;20124;-76
2023/08/21 05:02:56;;;;;;;3.80;1.20;;;;;;;;;;5052740;28;20068;-76
2023/08/21 05:05:22;;;;;;;2.83;1.33;;;;;;;;;;5053196;28;20480;-82
2023/08/21 05:07:47;;;;;;;3.20;1.13;;;;;;;;;;5052858;28;20057;-79
2023/08/21 05:10:12;;;;;;;2.78;1.52;;;;;;;;;;5054074;28;20492;-79
2023/08/21 05:12:38;;;;;;;4.43;1.70;;;;;;;;;;5053549;28;20029;-79
2023/08/21 05:15:04;;;;;;;5.70;1.95;;;;;;;;;;5052212;28;20396;-79
2023/08/21 05:17:30;;;;;;;6.63;2.00;;;;;;;;;;5053820;28;20043;-78
2023/08/21 05:19:56;;;;;;;4.85;1.85;;;;;;;;;;5053989;28;20029;-78
2023/08/21 05:22:21;;;;;;;4.68;2.15;;;;;;;;;;5035649;28;20446;-76
2023/08/21 05:24:47;;;;;;;4.43;1.90;;;;;;;;;;5035868;28;20033;-79
2023/08/21 05:27:12;;;;;;;8.40;3.47;;;;;;;;;;5035615;28;20033;-78
2023/08/21 05:29:38;;;;;;;6.95;2.33;;;;;;;;;;5052348;28;20108;-78
2023/08/21 05:32:03;;;;;;;8.27;3.35;;;;;;;;;;5053191;28;20036;-79
2023/08/21 05:34:29;;;;;;;6.63;2.60;;;;;;;;;;5052220;28;20119;-79
2023/08/21 05:36:54;;;;;;;11.35;2.70;;;;;;;;;;5053249;28;20029;-79
2023/08/21 05:39:20;;;;;;;7.47;2.22;;;;;;;;;;5053203;28;20101;-79
2023/08/21 05:41:45;;;;;;;6.47;2.03;;;;;;;;;;5053557;28;20067;-79
2023/08/21 05:44:11;;;;;;;4.95;2.15;;;;;;;;;;5053181;28;20032;-78
2023/08/21 05:46:36;;;;;;;7.97;2.38;;;;;;;;;;5054118;28;20557;-79
2023/08/21 05:49:01;;;;;;;7.40;2.70;;;;;;;;;;5057509;28;20032;-78
2023/08/21 05:51:27;;;;;;;4.47;2.28;;;;;;;;;;5039885;28;20025;-79
2023/08/21 05:53:52;;;;;;;5.78;1.80;;;;;;;;;;5055833;28;20028;-78
2023/08/21 05:56:17;;;;;;;6.95;2.20;;;;;;;;;;5057239;28;20107;-78
2023/08/21 05:58:43;;;;;;;5.80;2.25;;;;;;;;;;5039506;28;20039;-78
2023/08/21 06:01:08;;;;;;;4.00;1.70;;;;;;;;;;5055537;28;20048;-79
2023/08/21 06:03:34;;;;;;;5.85;1.85;;;;;;;;;;5055612;28;20039;-78
2023/08/21 06:05:59;;;;;;;4.68;1.90;;;;;;;;;;5055916;28;20041;-79
2023/08/21 06:08:24;;;;;;;3.00;1.63;;;;;;;;;;5056227;28;20037;-79
2023/08/21 06:10:53;;;;;;;7.28;1.83;;;;;;;;;;5039270;28;20045;-79
2023/08/21 06:13:18;;;;;;;2.92;1.80;;;;;;;;;;5056732;28;20499;-80
2023/08/21 06:15:45;;;;;;;3.88;1.85;;;;;;;;;;5056776;28;20033;-79
2023/08/21 06:18:10;;;;;;;6.13;2.60;;;;;;;;;;5055445;28;20471;-78
2023/08/21 06:20:36;;;;;;;3.55;1.83;;;;;;;;;;5038564;28;20072;-79
2023/08/21 06:23:01;;;;;;;4.15;1.75;;;;;;;;;;5055544;28;20384;-79
2023/08/21 06:25:26;;;;;;;6.32;1.60;;;;;;;;;;5056939;28;20032;-80
2023/08/21 06:27:52;;;;;;;6.32;1.70;;;;;;;;;;5056446;28;20043;-79
2023/08/21 06:30:17;;;;;;;5.82;1.77;;;;;;;;;;5054957;28;20029;-79
2023/08/21 06:32:44;;;;;;;3.88;1.77;;;;;;;;;;5055150;28;20552;-79
2023/08/21 06:35:09;;;;;;;4.72;1.63;;;;;;;;;;5056351;28;20044;-79
2023/08/21 06:37:35;;;;;;;4.82;1.80;;;;;;;;;;5056327;28;20507;-79
2023/08/21 06:40:00;;;;;;;7.93;1.83;;;;;;;;;;5056219;28;20029;-79
2023/08/21 06:42:25;;;;;;;4.32;1.48;;;;;;;;;;5056490;28;20049;-79
2023/08/21 06:44:51;;;;;;;2.95;1.55;;;;;;;;;;5055290;28;20028;-78
2023/08/21 06:47:16;;;;;;;4.95;1.90;;;;;;;;;;5054781;28;20033;-79
2023/08/21 06:49:42;;;;;;;4.35;1.45;;;;;;;;;;5056470;28;20036;-78
2023/08/21 06:52:07;;;;;;;5.93;2.33;;;;;;;;;;5055053;28;20040;-79
2023/08/21 06:54:32;;;;;;;4.07;1.38;;;;;;;;;;5054873;28;20116;-79
2023/08/21 06:56:58;;;;;;;2.15;1.50;;;;;;;;;;5056016;28;20029;-79
2023/08/21 06:59:24;;;;;;;7.55;1.75;;;;;;;;;;5056999;28;20492;-79
2023/08/21 07:01:50;;;;;;;5.47;1.50;;;;;;;;;;5054993;28;20025;-79
2023/08/21 07:04:16;;;;;;;3.25;1.60;;;;;;;;;;5055158;28;20403;-79
2023/08/21 07:06:41;;;;;;;2.50;1.35;;;;;;;;;;5057661;28;20037;-79
2023/08/21 07:09:07;;;;;;;2.63;1.30;;;;;;;;;;5055616;28;20095;-79
2023/08/21 07:11:32;;;;;;;5.10;1.40;;;;;;;;;;5054407;28;20472;-79
2023/08/21 07:13:58;;;;;;;2.95;1.40;;;;;;;;;;5055562;28;20365;-78
2023/08/21 07:16:26;;;;;;;2.60;1.17;;;;;;;;;;5055602;28;20028;-79
2023/08/21 07:18:51;;;;;;;2.92;1.30;;;;;;;;;;5054356;28;20103;-79
2023/08/21 07:21:17;;;;;;;3.15;1.20;;;;;;;;;;5054243;28;20103;-79
2023/08/21 07:23:42;;;;;;;2.00;1.15;;;;;;;;;;5054474;28;20033;-79
2023/08/21 07:26:08;;;;;;;1.88;1.20;;;;;;;;;;5055948;28;20467;-79
2023/08/21 07:28:33;;;;;;;1.70;1.40;;;;;;;;;;5055341;28;20082;-79
2023/08/21 07:30:59;;;;;;;3.03;1.02;;;;;;;;;;5055235;28;20032;-79
2023/08/21 07:33:25;;;;;;;1.80;1.20;;;;;;;;;;5054315;28;20021;-79
2023/08/21 07:36:02;;;;;;;1.35;1.10;;;;;;;;;;5054109;28;20407;-80
2023/08/21 07:38:27;;;;;;;3.13;1.15;;;;;;;;;;5053099;28;20046;-80
2023/08/21 07:41:08;;;;;;;4.90;0.98;;;;;;;;;;5054291;28;20025;-79
2023/08/21 07:43:34;;;;;;;1.70;1.10;;;;;;;;;;5052941;28;20590;-79
2023/08/21 07:46:03;;;;;;;2.40;1.02;;;;;;;;;;5053137;28;20029;-79
2023/08/21 07:48:29;;;;;;;2.25;1.13;;;;;;;;;;5053069;28;20534;-79
2023/08/21 07:50:55;;;;;;;2.90;1.30;;;;;;;;;;5052838;28;20067;-79
2023/08/21 07:53:20;;;;;;;2.05;1.20;;;;;;;;;;5052996;28;20029;-79
2023/08/21 07:55:46;;;;;;;8.43;1.35;;;;;;;;;;5054123;28;20037;-79
2023/08/21 07:58:11;;;;;;;6.18;1.40;;;;;;;;;;5054124;28;20032;-79
2023/08/21 08:00:38;;;;;;;6.18;1.17;;;;;;;;;;5054020;28;20424;-79
2023/08/21 08:03:05;;;;;;;2.63;1.00;;;;;;;;;;5052891;28;20025;-80
2023/08/21 08:05:31;;;;;;;5.55;1.27;;;;;;;;;;5052517;28;20032;-80
2023/08/21 08:07:57;;;;;;;6.93;1.30;;;;;;;;;;5019539;28;20123;-80
2023/08/21 08:10:24;;;;;;;3.88;1.20;;;;;;;;;;5052112;28;20109;-80
2023/08/21 08:12:49;;;;;;;7.05;1.13;;;;;;;;;;5052629;28;20025;-80
2023/08/21 08:15:14;;;;;;;2.80;1.35;;;;;;;;;;5053902;28;20029;-79
2023/08/21 08:17:40;;;;;;;5.32;1.55;;;;;;;;;;5052441;28;20391;-79
2023/08/21 08:20:06;;;;;;;5.57;1.70;;;;;;;;;;5051881;28;20032;-79
2023/08/21 08:22:31;;;;;;;3.00;1.50;;;;;;;;;;5052318;28;20036;-79
2023/08/21 08:24:57;;;;;;;5.75;1.30;;;;;;;;;;5053579;28;20100;-80
2023/08/21 08:27:22;;;;;;;3.97;1.50;;;;;;;;;;5052216;28;20063;-79
2023/08/21 08:29:49;;;;;;;4.70;1.15;;;;;;;;;;5035576;28;20037;-79
2023/08/21 08:32:14;;;;;;;2.92;1.17;;;;;;;;;;5054205;28;20112;-79
2023/08/21 08:34:39;;;;;;;5.32;1.33;;;;;;;;;;5054326;28;20117;-80
2023/08/21 08:37:05;;;;;;;5.82;1.27;;;;;;;;;;5054355;28;20037;-79
2023/08/21 08:39:31;;;;;;;2.63;1.20;;;;;;;;;;5053039;28;20029;-79
2023/08/21 08:41:59;;;;;;;2.63;1.00;;;;;;;;;;5053882;28;20460;-79
2023/08/21 08:44:26;;;;;;;3.15;1.20;;;;;;;;;;5055963;28;20041;-79
2023/08/21 08:46:53;;;;;;;2.38;1.17;;;;;;;;;;5056852;28;20029;-80
2023/08/21 08:49:20;;;;;;;6.13;1.35;;;;;;;;;;5053579;28;20116;-79
2023/08/21 08:51:46;;;;;;;4.65;1.23;;;;;;;;;;5052701;28;20036;-79
2023/08/21 08:54:12;;;;;;;3.05;1.20;;;;;;;;;;5053495;28;20040;-79
2023/08/21 08:56:38;;;;;;;2.28;1.02;;;;;;;;;;5053589;28;20498;-79
2023/08/21 08:59:05;;;;;;;6.03;1.30;;;;;;;;;;5052771;28;20033;-80
2023/08/21 09:01:31;;;;;;;3.30;1.20;;;;;;;;;;5053215;28;20027;-80
2023/08/21 09:03:56;;;;;;;2.38;1.30;;;;;;;;;;5053099;28;20125;-80
2023/08/21 09:06:22;;;;;;;2.42;1.13;;;;;;;;;;5052748;28;20071;-79
2023/08/21 09:08:57;;;;;;;3.20;1.20;;;;;;;;;;5053806;28;20429;-80
2023/08/21 09:11:23;;;;;;;4.22;1.25;;;;;;;;;;5052533;28;20511;-79
2023/08/21 09:13:53;;;;;;;4.65;1.38;;;;;;;;;;5052400;28;20040;-79
2023/08/21 09:16:19;;;;;;;2.00;1.10;;;;;;;;;;5037272;28;20106;-79
2023/08/21 09:18:49;;;;;;;3.75;1.60;;;;;;;;;;5037320;28;20025;-79
2023/08/21 09:21:17;;;;;;;3.72;1.50;;;;;;;;;;5035546;28;20029;-79
2023/08/21 09:23:42;;;;;;;5.00;1.40;;;;;;;;;;5051638;28;20056;-79
2023/08/21 09:26:08;;;;;;;2.90;1.40;;;;;;;;;;5035105;28;20525;-78
2023/08/21 09:28:34;;;;;;;2.40;1.05;;;;;;;;;;5052753;28;20381;-79
2023/08/21 09:31:00;;;;;;;3.25;1.17;;;;;;;;;;5052908;28;20025;-80
2023/08/21 09:33:25;;;;;;;3.70;1.38;;;;;;;;;;5053415;28;20063;-80
2023/08/21 09:35:52;;;;;;;3.22;1.35;;;;;;;;;;5051835;28;20476;-81
2023/08/21 09:38:19;;;;;;;3.67;1.60;;;;;;;;;;5051986;28;20037;-80
2023/08/21 09:40:53;;;;;;;3.00;1.13;;;;;;;;;;5051907;28;20025;-81
2023/08/21 09:43:20;;;;;;;5.88;1.45;;;;;;;;;;5051827;28;20103;-81
2023/08/21 09:45:47;;;;;;;2.65;1.13;;;;;;;;;;5035333;28;20043;-81
2023/08/21 09:48:13;;;;;;;3.83;1.00;;;;;;;;;;5052064;28;20078;-80
2023/08/21 09:50:40;;;;;;;5.55;1.60;;;;;;;;;;5051706;28;20111;-80
2023/08/21 09:53:06;;;;;;;5.20;1.70;;;;;;;;;;5052999;28;20093;-79
2023/08/21 09:55:32;;;;;;;6.80;1.48;;;;;;;;;;5052140;28;20028;-80
2023/08/21 09:58:01;;;;;;;4.47;1.20;;;;;;;;;;5051696;28;20104;-80
2023/08/21 10:00:32;;;;;;;4.50;1.40;;;;;;;;;;5051607;28;20028;-80
2023/08/21 10:03:03;;;;;;;2.88;1.10;;;;;;;;;;5051523;28;20033;-81
2023/08/21 10:05:31;;;;;;;5.00;1.33;;;;;;;;;;5035140;28;20376;-80
2023/08/21 10:08:01;;;;;;;3.53;1.30;;;;;;;;;;5035237;28;20025;-81
2023/08/21 10:10:29;;;;;;;2.88;1.30;;;;;;;;;;5035166;28;20028;-81
2023/08/21 10:12:55;;;;;;;2.65;1.00;;;;;;;;;;5035457;28;20031;-81
2023/08/21 10:15:20;;;;;;;2.28;0.93;;;;;;;;;;5052053;28;20108;-81
2023/08/21 10:17:46;;;;;;;2.22;1.00;;;;;;;;;;5052558;28;20111;-79
2023/08/21 10:20:11;;;;;;;2.58;1.10;;;;;;;;;;5052360;28;20021;-80
2023/08/21 10:22:48;;;;;;;2.25;1.10;;;;;;;;;;5052424;28;20079;-80
2023/08/21 10:25:21;;;;;;;2.35;1.02;;;;;;;;;;5051592;28;20017;-81
2023/08/21 10:27:52;;;;;;;3.40;0.98;;;;;;;;;;5051409;28;20025;-79
2023/08/21 10:30:28;;;;;;;1.95;0.85;;;;;;;;;;5051380;28;20021;-81
2023/08/21 10:32:58;;;;;;;3.28;1.42;;;;;;;;;;5054469;28;20091;-80
2023/08/21 10:35:34;;;;;;;4.60;1.20;;;;;;;;;;5054399;28;20529;-80
2023/08/21 10:38:15;;;;;;;3.05;1.30;;;;;;;;;;5037861;28;20036;-80
2023/08/21 10:40:41;;;;;;;7.15;1.13;;;;;;;;;;5021938;28;20039;-79
2023/08/21 10:43:39;;;;;;;4.40;1.63;;;;;;;;;;5054162;28;20052;-79
2023/08/21 10:46:04;;;;;;;9.10;1.20;;;;;;;;;;5055848;28;20037;-79
2023/08/21 10:48:30;;;;;;;11.38;2.20;;;;;;;;;;5056351;28;20029;-79
2023/08/21 10:50:55;;;;;;;10.93;2.45;;;;;;;;;;5055944;28;20507;-79
2023/08/21 10:53:23;;;;;;;8.00;2.38;;;;;;;;;;5037456;28;20120;-79
2023/08/21 10:56:01;;;;;;;6.35;1.88;;;;;;;;;;5055344;28;20036;-79
2023/08/21 10:58:26;;;;;;;5.88;2.05;;;;;;;;;;5054095;28;20090;-79
2023/08/21 11:00:58;;;;;;;5.10;1.85;;;;;;;;;;5055695;28;20021;-79
2023/08/21 11:03:24;;;;;;;6.28;1.95;;;;;;;;;;5054448;28;20025;-79
2023/08/21 11:06:03;;;;;;;7.63;1.92;;;;;;;;;;5054242;28;20540;-79
2023/08/21 11:08:28;;;;;;;4.18;1.70;;;;;;;;;;5054112;28;20033;-79
2023/08/21 11:10:54;;;;;;;6.85;1.52;;;;;;;;;;5054301;28;20032;-79
2023/08/21 11:13:19;;;;;;;4.22;1.40;;;;;;;;;;5055480;28;20028;-79
2023/08/21 11:15:45;;;;;;;3.88;1.15;;;;;;;;;;5054554;28;20487;-80
2023/08/21 11:18:11;;;;;;;3.70;1.38;;;;;;;;;;5054157;28;20036;-79
2023/08/21 11:20:36;;;;;;;7.90;1.58;;;;;;;;;;5054048;28;20048;-79
2023/08/21 11:23:06;;;;;;;3.33;1.30;;;;;;;;;;5054996;28;20048;-79
2023/08/21 11:25:32;;;;;;;3.38;1.20;;;;;;;;;;5037697;28;20037;-79
2023/08/21 11:27:58;;;;;;;4.78;1.50;;;;;;;;;;5053985;28;20063;-79
2023/08/21 11:30:24;;;;;;;4.35;1.60;;;;;;;;;;5055043;28;20061;-79
2023/08/21 11:33:04;;;;;;;4.15;1.40;;;;;;;;;;5037718;28;20117;-79
2023/08/21 11:35:30;;;;;;;4.07;1.40;;;;;;;;;;5054071;28;20025;-80
2023/08/21 11:37:55;;;;;;;3.03;1.30;;;;;;;;;;5055214;28;20466;-79
2023/08/21 11:40:20;;;;;;;4.90;1.45;;;;;;;;;;5056858;28;20036;-79
2023/08/21 11:42:46;;;;;;;5.63;1.40;;;;;;;;;;5039092;28;20061;-79
2023/08/21 11:45:11;;;;;;;3.03;1.38;;;;;;;;;;5054079;28;20037;-80
2023/08/21 11:47:36;;;;;;;5.93;1.60;;;;;;;;;;5055730;28;20368;-81
2023/08/21 11:50:07;;;;;;;2.35;1.20;;;;;;;;;;5055501;28;20025;-79
2023/08/21 11:52:32;;;;;;;2.60;1.25;;;;;;;;;;5055520;28;20044;-80
2023/08/21 11:54:58;;;;;;;2.53;1.05;;;;;;;;;;5055359;28;20029;-79
2023/08/21 11:57:23;;;;;;;4.15;1.60;;;;;;;;;;5053753;28;20025;-79
2023/08/21 11:59:55;;;;;;;3.95;1.13;;;;;;;;;;5053458;28;20037;-80
2023/08/21 12:02:21;;;;;;;2.35;0.98;;;;;;;;;;5054240;28;20033;-79
2023/08/21 12:05:01;;;;;;;3.20;1.23;;;;;;;;;;5055493;28;20036;-80
2023/08/21 12:07:26;;;;;;;3.30;1.30;;;;;;;;;;5055048;28;20032;-79
2023/08/21 12:09:52;;;;;;;3.55;1.20;;;;;;;;;;5056717;28;20079;-79
2023/08/21 12:12:17;;;;;;;3.97;1.08;;;;;;;;;;5037906;28;20037;-80
2023/08/21 12:14:42;;;;;;;3.08;1.35;;;;;;;;;;5055139;28;20082;-80
2023/08/21 12:17:08;;;;;;;3.20;1.20;;;;;;;;;;5054959;28;20033;-80
2023/08/21 12:19:33;;;;;;;4.28;1.10;;;;;;;;;;5053486;28;20029;-79
2023/08/21 12:21:59;;;;;;;5.50;1.48;;;;;;;;;;5053374;28;20036;-80
2023/08/21 12:24:25;;;;;;;2.17;1.00;;;;;;;;;;5055246;28;20025;-79
2023/08/21 12:26:50;;;;;;;2.80;1.17;;;;;;;;;;5055203;28;20031;-80
2023/08/21 12:29:15;;;;;;;3.67;1.00;;;;;;;;;;5054657;28;20037;-80
2023/08/21 12:31:41;;;;;;;2.33;0.85;;;;;;;;;;5052855;28;20040;-80
2023/08/21 12:34:06;;;;;;;1.77;1.00;;;;;;;;;;5036509;28;20028;-79
2023/08/21 12:36:37;;;;;;;0.80;0.80;;;;;;;;;;5054408;28;20074;-79
2023/08/21 12:39:03;;;;;;;2.20;0.98;;;;;;;;;;5054028;28;20044;-79
2023/08/21 12:41:29;;;;;;;4.57;0.90;;;;;;;;;;5052871;28;20025;-79
2023/08/21 12:43:54;;;;;;;1.10;0.90;;;;;;;;;;5053922;28;20399;-81
2023/08/21 12:46:20;;;;;;;1.38;0.73;;;;;;;;;;5054014;28;20029;-82
2023/08/21 12:48:45;;;;;;;2.55;1.10;;;;;;;;;;5052589;28;20037;-79
2023/08/21 12:51:11;;;;;;;2.20;1.00;;;;;;;;;;5052716;28;20029;-79
2023/08/21 12:53:36;;;;;;;3.38;1.10;;;;;;;;;;5052887;28;20434;-80
2023/08/21 12:56:01;;;;;;;5.50;1.30;;;;;;;;;;5053902;28;20080;-80
2023/08/21 12:58:29;;;;;;;2.85;0.80;;;;;;;;;;5036648;28;20525;-79
2023/08/21 13:00:54;;;;;;;3.22;0.70;;;;;;;;;;5052494;28;20479;-80
2023/08/21 13:03:20;;;;;;;1.63;1.00;;;;;;;;;;5052299;28;20044;-80
2023/08/21 13:05:45;;;;;;;1.30;1.00;;;;;;;;;;5052727;28;20101;-79
2023/08/21 13:08:11;;;;;;;2.47;0.90;;;;;;;;;;5052822;28;20036;-79
2023/08/21 13:10:36;;;;;;;1.52;0.63;;;;;;;;;;5036195;28;20116;-79
2023/08/21 13:13:02;;;;;;;1.35;0.80;;;;;;;;;;5052610;28;20029;-79
2023/08/21 13:15:28;;;;;;;2.08;0.90;;;;;;;;;;5052159;28;20029;-79
2023/08/21 13:17:53;;;;;;;1.80;0.88;;;;;;;;;;5051778;28;20506;-80
2023/08/21 13:20:19;;;;;;;4.05;0.90;;;;;;;;;;5052075;28;20032;-80
2023/08/21 13:22:49;;;;;;;1.80;0.90;;;;;;;;;;5052462;28;20091;-79
2023/08/21 13:25:19;;;;;;;1.35;0.90;;;;;;;;;;5052405;28;20036;-79
2023/08/21 13:27:46;;;;;;;1.20;0.80;;;;;;;;;;5051928;28;20025;-79
2023/08/21 13:30:12;;;;;;;1.20;0.90;;;;;;;;;;5051774;28;20439;-79
2023/08/21 13:32:38;;;;;;;1.38;1.00;;;;;;;;;;5052694;28;20021;-80
2023/08/21 13:35:08;;;;;;;0.95;0.93;;;;;;;;;;5053613;28;20360;-79
2023/08/21 13:37:36;;;;;;;2.17;0.98;;;;;;;;;;5036043;28;20471;-79
2023/08/21 13:40:10;;;;;;;0.75;0.70;;;;;;;;;;5052335;28;20029;-79
2023/08/21 13:42:40;;;;;;;;;;;;;;;;;;5053210;28;20028;-79
2023/08/21 13:45:12;;;;;;;0.98;0.70;;;;;;;;;;5052403;28;19974;-79
2023/08/21 13:47:38;;;;;;;1.90;0.80;;;;;;;;;;5053413;28;20476;-79
2023/08/21 13:50:05;;;;;;;1.02;0.77;;;;;;;;;;5053176;28;20033;-79
2023/08/21 13:52:30;;;;;;;2.90;0.95;;;;;;;;;;5053297;28;20064;-79
2023/08/21 13:54:56;;;;;;;0.98;0.60;;;;;;;;;;5053114;28;20057;-79
2023/08/21 13:57:21;;;;;;;0.80;0.80;;;;;;;;;;5053608;28;20528;-79
2023/08/21 13:59:47;;;;;;;1.02;0.80;;;;;;;;;;5053916;28;20380;-79
2023/08/21 14:02:13;;;;;;;1.38;1.00;;;;;;;;;;5052148;28;20392;-79
2023/08/21 14:04:39;;;;;;;1.77;1.02;;;;;;;;;;5035673;28;20032;-79
2023/08/21 14:07:04;;;;;;;1.08;0.68;;;;;;;;;;5053457;28;20036;-79
2023/08/21 14:09:30;;;;;;;1.58;1.00;;;;;;;;;;5056959;28;20388;-82
2023/08/21 14:11:55;;;;;;;1.23;1.00;;;;;;;;;;5057741;28;20148;-81
2023/08/21 14:14:20;;;;;;;3.90;0.90;;;;;;;;;;5058131;28;20108;-80
2023/08/21 14:16:46;;;;;;;1.92;1.00;;;;;;;;;;5056815;28;20025;-82
2023/08/21 14:19:11;;;;;;;1.25;0.77;;;;;;;;;;5056907;28;20460;-82
2023/08/21 14:21:37;;;;;;;2.53;1.15;;;;;;;;;;5055668;28;20025;-79
2023/08/21 14:24:02;;;;;;;2.83;1.10;;;;;;;;;;5056903;28;20025;-78
2023/08/21 14:26:28;;;;;;;4.43;1.10;;;;;;;;;;5057202;28;20119;-78
2023/08/21 14:28:54;;;;;;;1.75;1.10;;;;;;;;;;5057293;28;20043;-81
2023/08/21 14:31:20;;;;;;;3.30;0.95;;;;;;;;;;5055598;28;20017;-79
2023/08/21 14:33:45;;;;;;;4.25;1.17;;;;;;;;;;5055262;28;20091;-78
2023/08/21 14:36:10;;;;;;;1.50;1.00;;;;;;;;;;5056221;28;20124;-79
2023/08/21 14:38:36;;;;;;;1.85;0.90;;;;;;;;;;5057170;28;20092;-79